createdAt,value
2022-12-01T00:01:09.712Z,21.97
2022-12-01T00:03:37.021Z,26.93
2022-12-01T00:06:06.235Z,25.87
2022-12-01T00:08:34.249Z,23.67
2022-12-01T00:11:05.180Z,25.17
2022-12-01T00:13:32.299Z,30.10
2022-12-01T00:16:10.302Z,27.33
2022-12-01T00:18:37.242Z,27.40
2022-12-01T00:21:04.329Z,28.83
2022-12-01T00:23:31.768Z,25.23
2022-12-01T00:26:03.657Z,27.97
2022-12-01T00:28:30.694Z,29.47
2022-12-01T00:30:57.567Z,29.33
2022-12-01T00:33:25.810Z,32.00
2022-12-01T00:35:58.524Z,28.83
2022-12-01T00:38:25.503Z,34.27
2022-12-01T00:40:52.327Z,29.90
2022-12-01T00:43:19.114Z,30.07
2022-12-01T00:45:46.097Z,33.93
2022-12-01T00:48:13.008Z,35.20
2022-12-01T00:50:41.288Z,38.80
2022-12-01T00:53:08.524Z,30.57
2022-12-01T00:55:35.597Z,28.10
2022-12-01T00:58:02.504Z,33.07
2022-12-01T01:00:29.351Z,35.03
2022-12-01T01:02:56.230Z,35.87
2022-12-01T01:05:23.324Z,35.73
2022-12-01T01:07:51.659Z,35.07
2022-12-01T01:10:18.699Z,38.03
2022-12-01T01:12:45.464Z,33.40
2022-12-01T01:15:12.710Z,34.50
2022-12-01T01:17:39.531Z,37.43
2022-12-01T01:20:07.681Z,34.67
2022-12-01T01:22:35.308Z,36.73
2022-12-01T01:25:03.659Z,37.37
2022-12-01T01:27:30.494Z,35.00
2022-12-01T01:29:57.339Z,36.43
2022-12-01T01:32:24.141Z,39.33
2022-12-01T01:34:50.933Z,39.93
2022-12-01T01:37:17.711Z,37.63
2022-12-01T01:39:44.609Z,44.73
2022-12-01T01:42:13.780Z,37.97
2022-12-01T01:44:49.187Z,39.57
2022-12-01T01:47:18.272Z,41.80
2022-12-01T01:49:45.098Z,39.63
2022-12-01T01:52:12.218Z,34.87
2022-12-01T01:54:42.509Z,43.53
2022-12-01T01:57:13.703Z,36.73
2022-12-01T01:59:45.171Z,37.53
2022-12-01T02:02:13.539Z,36.90
2022-12-01T02:04:45.219Z,36.30
2022-12-01T02:07:13.480Z,37.60
2022-12-01T02:09:40.345Z,37.37
2022-12-01T02:12:20.389Z,35.00
2022-12-01T02:15:03.364Z,37.53
2022-12-01T02:17:40.348Z,39.00
2022-12-01T02:20:53.228Z,33.67
2022-12-01T02:23:48.084Z,37.27
2022-12-01T02:26:33.566Z,34.87
2022-12-01T02:29:30.200Z,36.70
2022-12-01T02:32:04.105Z,33.73
2022-12-01T02:34:39.766Z,30.70
2022-12-01T02:37:10.960Z,30.30
2022-12-01T02:39:50.643Z,32.30
2022-12-01T02:42:39.308Z,38.10
2022-12-01T02:45:11.948Z,33.13
2022-12-01T02:47:41.983Z,32.23
2022-12-01T02:50:10.974Z,32.03
2022-12-01T02:52:39.352Z,32.27
2022-12-01T02:55:06.703Z,35.07
2022-12-01T02:57:33.554Z,32.53
2022-12-01T03:00:01.116Z,32.47
2022-12-01T03:02:42.162Z,33.97
2022-12-01T03:05:22.056Z,33.10
2022-12-01T03:08:00.948Z,33.57
2022-12-01T03:10:37.045Z,36.00
2022-12-01T03:13:18.615Z,34.13
2022-12-01T03:15:57.250Z,35.50
2022-12-01T03:18:31.250Z,31.13
2022-12-01T03:21:05.810Z,34.83
2022-12-01T03:23:37.793Z,35.83
2022-12-01T03:26:08.203Z,34.50
2022-12-01T03:28:39.047Z,36.33
2022-12-01T03:31:11.841Z,35.67
2022-12-01T03:33:46.840Z,38.13
2022-12-01T03:36:19.574Z,35.77
2022-12-01T03:38:52.164Z,30.73
2022-12-01T03:41:25.204Z,34.67
2022-12-01T03:43:58.935Z,30.63
2022-12-01T03:46:35.225Z,31.87
2022-12-01T03:49:03.786Z,30.70
2022-12-01T03:51:39.564Z,33.87
2022-12-01T03:54:13.110Z,35.53
2022-12-01T03:56:46.215Z,32.20
2022-12-01T03:59:15.997Z,32.13
2022-12-01T04:01:43.022Z,39.87
2022-12-01T04:04:12.429Z,32.33
2022-12-01T04:06:42.334Z,35.10
2022-12-01T04:09:09.358Z,33.03
2022-12-01T04:11:54.709Z,35.20
2022-12-01T04:14:21.887Z,37.00
2022-12-01T04:16:48.782Z,39.57
2022-12-01T04:19:15.699Z,33.30
2022-12-01T04:21:44.175Z,33.67
2022-12-01T04:24:11.739Z,34.43
2022-12-01T04:26:38.576Z,31.80
2022-12-01T04:29:07.343Z,30.43
2022-12-01T04:31:34.532Z,34.27
2022-12-01T04:34:01.763Z,33.50
2022-12-01T04:36:31.480Z,37.70
2022-12-01T04:38:59.821Z,33.57
2022-12-01T04:41:27.727Z,34.33
2022-12-01T04:43:55.013Z,39.87
2022-12-01T04:46:22.428Z,34.97
2022-12-01T04:48:49.578Z,36.40
2022-12-01T04:51:16.393Z,37.40
2022-12-01T04:53:43.216Z,37.07
2022-12-01T04:56:11.403Z,34.57
2022-12-01T04:58:38.579Z,33.07
2022-12-01T05:01:07.261Z,31.10
2022-12-01T05:03:37.090Z,33.97
2022-12-01T05:06:05.237Z,38.03
2022-12-01T05:08:32.283Z,35.93
2022-12-01T05:10:59.077Z,37.63
2022-12-01T05:13:27.541Z,35.97
2022-12-01T05:15:54.645Z,35.70
2022-12-01T05:18:21.561Z,39.20
2022-12-01T05:20:57.505Z,34.20
2022-12-01T05:23:24.583Z,32.23
2022-12-01T05:25:51.342Z,38.87
2022-12-01T05:28:18.386Z,35.17
2022-12-01T05:30:46.777Z,35.97
2022-12-01T05:33:13.691Z,42.07
2022-12-01T05:35:40.601Z,34.50
2022-12-01T05:38:08.284Z,35.40
2022-12-01T05:40:35.902Z,40.20
2022-12-01T05:43:02.768Z,33.20
2022-12-01T05:45:29.978Z,33.27
2022-12-01T05:47:59.762Z,35.83
2022-12-01T05:50:28.372Z,35.57
2022-12-01T05:52:55.230Z,36.57
2022-12-01T05:55:22.261Z,37.03
2022-12-01T05:57:49.138Z,39.70
2022-12-01T06:00:17.021Z,37.87
2022-12-01T06:02:43.877Z,37.80
2022-12-01T06:05:12.214Z,41.30
2022-12-01T06:07:40.238Z,40.67
2022-12-01T06:10:09.283Z,37.57
2022-12-01T06:12:36.996Z,37.83
2022-12-01T06:15:07.224Z,43.70
2022-12-01T06:17:39.791Z,35.23
2022-12-01T06:20:09.657Z,40.37
2022-12-01T06:22:37.843Z,43.03
2022-12-01T06:25:05.682Z,40.67
2022-12-01T06:27:32.604Z,41.83
2022-12-01T06:30:01.434Z,39.60
2022-12-01T06:32:28.268Z,43.13
2022-12-01T06:34:55.182Z,43.43
2022-12-01T06:37:21.992Z,45.77
2022-12-01T06:39:50.352Z,37.33
2022-12-01T06:42:17.522Z,35.77
2022-12-01T06:44:44.444Z,37.83
2022-12-01T06:47:11.242Z,37.47
2022-12-01T06:49:38.280Z,35.03
2022-12-01T06:52:05.282Z,34.83
2022-12-01T06:54:32.174Z,38.57
2022-12-01T06:57:00.406Z,35.87
2022-12-01T06:59:27.508Z,29.83
2022-12-01T07:01:54.851Z,37.80
2022-12-01T07:04:21.767Z,36.73
2022-12-01T07:06:48.590Z,35.93
2022-12-01T07:09:15.397Z,36.03
2022-12-01T07:11:42.263Z,34.57
2022-12-01T07:14:17.712Z,32.77
2022-12-01T07:16:44.667Z,33.30
2022-12-01T07:19:11.613Z,35.70
2022-12-01T07:21:38.517Z,37.80
2022-12-01T07:24:05.992Z,35.10
2022-12-01T07:26:33.081Z,36.37
2022-12-01T07:29:00.001Z,31.33
2022-12-01T07:31:28.351Z,35.73
2022-12-01T07:33:55.250Z,34.37
2022-12-01T07:36:22.255Z,37.03
2022-12-01T07:38:49.127Z,33.33
2022-12-01T07:41:21.234Z,30.57
2022-12-01T07:43:48.863Z,33.90
2022-12-01T07:46:22.780Z,33.00
2022-12-01T07:48:52.798Z,32.60
2022-12-01T07:51:20.723Z,31.73
2022-12-01T07:53:49.326Z,28.87
2022-12-01T07:56:17.133Z,34.77
2022-12-01T07:58:44.443Z,32.93
2022-12-01T08:01:13.806Z,34.87
2022-12-01T08:03:41.386Z,33.97
2022-12-01T08:06:10.319Z,35.47
2022-12-01T08:08:38.789Z,37.50
2022-12-01T08:11:09.814Z,35.30
2022-12-01T08:13:36.860Z,36.83
2022-12-01T08:16:05.139Z,38.30
2022-12-01T08:18:34.470Z,41.03
2022-12-01T08:21:01.497Z,32.90
2022-12-01T08:23:29.799Z,37.53
2022-12-01T08:26:00.047Z,34.47
2022-12-01T08:28:26.957Z,29.77
2022-12-01T08:30:54.153Z,33.50
2022-12-01T08:33:21.087Z,35.60
2022-12-01T08:35:48.062Z,32.43
2022-12-01T08:38:15.782Z,31.93
2022-12-01T08:40:43.998Z,30.30
2022-12-01T08:43:23.053Z,30.77
2022-12-01T08:46:00.405Z,31.37
2022-12-01T08:48:29.954Z,32.30
2022-12-01T08:51:05.031Z,32.30
2022-12-01T08:53:32.394Z,31.50
2022-12-01T08:56:02.249Z,34.90
2022-12-01T08:58:29.295Z,32.87
2022-12-01T09:01:02.072Z,29.47
2022-12-01T09:03:29.524Z,28.23
2022-12-01T09:06:02.153Z,28.23
2022-12-01T09:08:33.027Z,31.80
2022-12-01T09:11:02.795Z,27.30
2022-12-01T09:13:30.640Z,28.90
2022-12-01T09:15:59.980Z,31.30
2022-12-01T09:18:27.568Z,29.20
2022-12-01T09:20:55.278Z,28.23
2022-12-01T09:23:22.940Z,27.73
2022-12-01T09:25:50.592Z,25.80
2022-12-01T09:28:19.261Z,26.93
2022-12-01T09:30:46.614Z,26.40
2022-12-01T09:33:14.008Z,21.37
2022-12-01T09:35:41.097Z,22.47
2022-12-01T09:38:07.986Z,21.17
2022-12-01T09:40:38.366Z,21.80
2022-12-01T09:43:14.275Z,26.70
2022-12-01T09:45:47.454Z,23.70
2022-12-01T09:48:24.722Z,21.27
2022-12-01T09:50:53.234Z,18.87
2022-12-01T09:53:22.770Z,22.07
2022-12-01T09:55:50.202Z,20.90
2022-12-01T09:58:21.129Z,22.03
2022-12-01T10:00:51.076Z,22.27
2022-12-01T10:03:32.963Z,23.63
2022-12-01T10:09:02.419Z,23.60
2022-12-01T10:11:33.430Z,21.60
2022-12-01T10:14:01.035Z,23.37
2022-12-01T10:16:38.590Z,21.90
2022-12-01T10:19:10.796Z,22.17
2022-12-01T10:21:54.742Z,22.97
2022-12-01T10:24:37.553Z,25.17
2022-12-01T10:27:16.037Z,23.70
2022-12-01T10:29:48.729Z,26.53
2022-12-01T10:32:19.450Z,22.70
2022-12-01T10:34:47.921Z,23.30
2022-12-01T10:37:19.195Z,22.93
2022-12-01T10:39:48.551Z,24.20
2022-12-01T10:42:22.112Z,20.23
2022-12-01T10:44:50.424Z,22.23
2022-12-01T10:47:21.884Z,26.53
2022-12-01T10:49:49.281Z,22.33
2022-12-01T10:52:35.548Z,23.20
2022-12-01T10:55:04.207Z,22.30
2022-12-01T10:57:31.807Z,21.07
2022-12-01T11:00:02.057Z,21.87
2022-12-01T11:02:32.164Z,22.37
2022-12-01T11:05:01.996Z,23.00
2022-12-01T11:07:31.922Z,20.93
2022-12-01T11:10:15.676Z,25.40
2022-12-01T11:12:44.853Z,25.43
2022-12-01T11:15:20.775Z,23.63
2022-12-01T11:17:58.347Z,22.37
2022-12-01T11:20:32.410Z,21.87
2022-12-01T11:23:26.286Z,22.80
2022-12-01T11:26:03.972Z,23.50
2022-12-01T11:28:32.815Z,24.23
2022-12-01T11:31:02.606Z,24.27
2022-12-01T11:33:33.988Z,20.40
2022-12-01T11:36:00.863Z,21.50
2022-12-01T11:38:33.807Z,27.17
2022-12-01T11:41:00.855Z,24.57
2022-12-01T11:43:30.324Z,23.73
2022-12-01T11:45:59.855Z,22.60
2022-12-01T11:48:28.315Z,22.03
2022-12-01T11:51:06.171Z,20.50
2022-12-01T11:53:36.167Z,23.50
2022-12-01T11:56:20.684Z,23.83
2022-12-01T11:58:49.492Z,25.67
2022-12-01T12:01:28.546Z,24.17
2022-12-01T12:04:09.067Z,24.73
2022-12-01T12:06:44.950Z,24.93
2022-12-01T12:09:27.469Z,23.03
2022-12-01T12:12:04.303Z,25.50
2022-12-01T12:14:47.287Z,25.43
2022-12-01T12:17:28.280Z,24.43
2022-12-01T12:20:24.684Z,24.33
2022-12-01T12:23:05.050Z,25.67
2022-12-01T12:25:52.512Z,25.97
2022-12-01T12:28:31.505Z,26.47
2022-12-01T12:31:06.710Z,24.50
2022-12-01T12:34:09.661Z,23.93
2022-12-01T12:36:44.402Z,35.90
2022-12-01T12:39:32.014Z,21.57
2022-12-01T12:42:01.326Z,22.53
2022-12-01T12:44:47.355Z,23.77
2022-12-01T12:47:25.614Z,21.57
2022-12-01T12:50:02.111Z,25.37
2022-12-01T12:52:33.235Z,23.43
2022-12-01T12:55:10.901Z,26.50
2022-12-01T12:57:41.010Z,20.13
2022-12-01T13:00:15.880Z,22.87
2022-12-01T13:02:47.856Z,23.27
2022-12-01T13:05:20.569Z,26.43
2022-12-01T13:07:52.371Z,22.63
2022-12-01T13:10:29.888Z,24.47
2022-12-01T13:13:12.695Z,24.30
2022-12-01T13:15:42.076Z,24.57
2022-12-01T13:18:16.829Z,21.43
2022-12-01T13:20:44.148Z,21.77
2022-12-01T13:23:16.626Z,21.47
2022-12-01T13:25:49.090Z,17.97
2022-12-01T13:28:21.005Z,27.40
2022-12-01T13:31:02.892Z,22.70
2022-12-01T13:33:30.939Z,21.87
2022-12-01T13:36:30.020Z,24.43
2022-12-01T13:38:57.064Z,21.30
2022-12-01T13:41:29.380Z,19.93
2022-12-01T13:44:04.436Z,23.17
2022-12-01T13:46:49.420Z,20.20
2022-12-01T13:49:34.144Z,20.87
2022-12-01T13:52:28.389Z,20.37
2022-12-01T13:55:17.854Z,22.27
2022-12-01T13:57:50.132Z,21.47
2022-12-01T14:00:26.199Z,20.03
2022-12-01T14:03:29.841Z,23.40
2022-12-01T14:06:05.863Z,20.03
2022-12-01T14:08:34.394Z,19.93
2022-12-01T14:11:04.750Z,18.87
2022-12-01T14:13:50.493Z,21.17
2022-12-01T14:16:17.590Z,18.23
2022-12-01T14:18:51.350Z,22.10
2022-12-01T14:21:42.697Z,19.00
2022-12-01T14:24:23.155Z,19.53
2022-12-01T14:26:51.484Z,20.13
2022-12-01T14:29:28.857Z,17.53
2022-12-01T14:32:25.783Z,17.97
2022-12-01T14:35:01.050Z,17.53
2022-12-01T14:37:37.307Z,19.33
2022-12-01T14:40:11.173Z,18.67
2022-12-01T14:42:59.136Z,21.27
2022-12-01T14:45:32.463Z,18.87
2022-12-01T14:48:04.014Z,20.70
2022-12-01T14:50:39.855Z,18.03
2022-12-01T14:53:22.447Z,20.00
2022-12-01T14:55:53.550Z,20.07
2022-12-01T14:58:23.885Z,20.97
2022-12-01T15:00:59.524Z,20.63
2022-12-01T15:03:32.213Z,21.90
2022-12-01T15:05:59.305Z,19.67
2022-12-01T15:08:58.203Z,22.33
2022-12-01T15:11:22.144Z,23.70
2022-12-01T15:13:51.039Z,22.03
2022-12-01T15:16:22.454Z,22.13
2022-12-01T15:18:49.868Z,18.90
2022-12-01T15:21:19.618Z,22.70
2022-12-01T15:23:57.474Z,20.80
2022-12-01T15:26:27.208Z,24.53
2022-12-01T15:29:05.553Z,16.80
2022-12-01T15:31:35.050Z,20.97
2022-12-01T15:34:02.295Z,21.10
2022-12-01T15:36:29.191Z,22.90
2022-12-01T15:38:56.634Z,23.67
2022-12-01T15:41:29.385Z,20.67
2022-12-01T15:43:58.572Z,20.77
2022-12-01T15:46:30.309Z,24.30
2022-12-01T15:49:08.938Z,20.10
2022-12-01T15:51:36.253Z,22.67
2022-12-01T15:54:04.084Z,22.50
2022-12-01T15:56:33.329Z,20.30
2022-12-01T15:59:07.455Z,22.63
2022-12-01T16:01:35.626Z,21.63
2022-12-01T16:04:05.575Z,26.10
2022-12-01T16:06:36.455Z,26.47
2022-12-01T16:09:05.755Z,23.53
2022-12-01T16:11:33.222Z,23.10
2022-12-01T16:14:04.231Z,23.93
2022-12-01T16:16:39.989Z,23.63
2022-12-01T16:19:26.415Z,24.77
2022-12-01T16:21:57.505Z,25.70
2022-12-01T16:24:29.810Z,26.60
2022-12-01T16:27:01.755Z,27.83
2022-12-01T16:29:30.661Z,27.13
2022-12-01T16:32:24.185Z,22.83
2022-12-01T16:34:52.681Z,26.83
2022-12-01T16:37:22.195Z,28.60
2022-12-01T16:39:49.764Z,24.73
2022-12-01T16:42:18.559Z,25.30
2022-12-01T16:44:46.556Z,27.13
2022-12-01T16:47:15.906Z,24.63
2022-12-01T16:49:42.985Z,28.70
2022-12-01T16:52:42.546Z,26.50
2022-12-01T16:54:58.318Z,31.47
2022-12-01T16:57:25.152Z,22.50
2022-12-01T16:59:51.938Z,28.00
2022-12-01T17:02:18.867Z,28.20
2022-12-01T17:04:45.750Z,31.40
2022-12-01T17:07:12.539Z,28.77
2022-12-01T17:09:39.563Z,28.50
2022-12-01T17:12:08.108Z,32.30
2022-12-01T17:14:36.192Z,28.63
2022-12-01T17:17:03.108Z,29.60
2022-12-01T17:19:29.990Z,34.93
2022-12-01T17:21:56.969Z,34.27
2022-12-01T17:24:24.484Z,30.63
2022-12-01T17:26:51.336Z,34.17
2022-12-01T17:29:19.570Z,30.40
2022-12-01T17:31:46.423Z,32.60
2022-12-01T17:34:13.279Z,31.47
2022-12-01T17:36:40.067Z,30.20
2022-12-01T17:39:06.880Z,35.30
2022-12-01T17:41:35.820Z,27.40
2022-12-01T17:44:03.261Z,32.40
2022-12-01T17:46:31.678Z,30.30
2022-12-01T17:48:59.303Z,37.37
2022-12-01T17:51:26.181Z,36.50
2022-12-01T17:53:53.799Z,36.33
2022-12-01T17:56:20.681Z,33.60
2022-12-01T17:58:50.323Z,35.30
2022-12-01T18:01:19.343Z,36.17
2022-12-01T18:03:48.655Z,32.57
2022-12-01T18:06:16.630Z,30.00
2022-12-01T18:08:43.693Z,33.33
2022-12-01T18:11:15.124Z,34.97
2022-12-01T18:13:43.877Z,31.13
2022-12-01T18:16:12.300Z,33.97
2022-12-01T18:18:39.939Z,38.80
2022-12-01T18:21:11.861Z,31.70
2022-12-01T18:23:38.988Z,33.33
2022-12-01T18:26:12.128Z,33.80
2022-12-01T18:28:42.249Z,31.30
2022-12-01T18:31:11.786Z,38.23
2022-12-01T18:33:40.466Z,36.20
2022-12-01T18:36:12.853Z,35.70
2022-12-01T18:38:40.092Z,34.73
2022-12-01T18:41:07.602Z,34.80
2022-12-01T18:43:34.712Z,33.77
2022-12-01T18:46:03.688Z,35.33
2022-12-01T18:48:30.677Z,33.17
2022-12-01T18:51:02.031Z,34.87
2022-12-01T18:53:30.605Z,32.20
2022-12-01T18:56:00.976Z,31.03
2022-12-01T18:58:27.843Z,32.90
2022-12-01T19:00:54.748Z,37.37
2022-12-01T19:03:21.659Z,35.87
2022-12-01T19:05:48.742Z,33.60
2022-12-01T19:08:15.745Z,38.10
2022-12-01T19:10:44.169Z,38.17
2022-12-01T19:13:10.992Z,36.03
2022-12-01T19:15:37.933Z,31.40
2022-12-01T19:18:05.127Z,32.97
2022-12-01T19:20:32.184Z,31.23
2022-12-01T19:22:59.446Z,36.57
2022-12-01T19:25:26.290Z,32.47
2022-12-01T19:27:54.538Z,37.10
2022-12-01T19:30:21.401Z,34.13
2022-12-01T19:32:48.211Z,37.73
2022-12-01T19:35:15.148Z,41.60
2022-12-01T19:37:42.077Z,33.40
2022-12-01T19:40:09.600Z,38.33
2022-12-01T19:42:36.459Z,36.00
2022-12-01T19:45:05.453Z,37.43
2022-12-01T19:47:32.947Z,35.30
2022-12-01T19:50:00.248Z,37.67
2022-12-01T19:52:28.576Z,35.70
2022-12-01T19:54:55.592Z,38.17
2022-12-01T19:57:22.427Z,34.67
2022-12-01T19:59:49.307Z,50.87
2022-12-01T20:02:19.855Z,36.23
2022-12-01T20:04:46.993Z,33.60
2022-12-01T20:07:13.795Z,36.70
2022-12-01T20:09:46.867Z,35.13
2022-12-01T20:12:16.589Z,37.07
2022-12-01T20:14:43.482Z,37.10
2022-12-01T20:17:15.552Z,34.67
2022-12-01T20:19:44.293Z,36.43
2022-12-01T20:22:11.184Z,32.70
2022-12-01T20:24:41.148Z,36.30
2022-12-01T20:27:08.829Z,38.93
2022-12-01T20:29:35.728Z,39.67
2022-12-01T20:32:03.299Z,35.23
2022-12-01T20:34:32.204Z,32.57
2022-12-01T20:37:01.205Z,36.07
2022-12-01T20:39:31.511Z,36.00
2022-12-01T20:41:58.470Z,35.20
2022-12-01T20:44:25.270Z,33.73
2022-12-01T20:46:52.760Z,32.70
2022-12-01T20:49:20.263Z,36.60
2022-12-01T20:51:47.568Z,31.53
2022-12-01T20:54:32.728Z,42.63
2022-12-01T20:56:59.850Z,35.03
2022-12-01T20:59:27.613Z,37.53
2022-12-01T21:01:54.660Z,40.40
2022-12-01T21:04:21.753Z,36.57
2022-12-01T21:06:50.078Z,38.70
2022-12-01T21:09:18.456Z,30.07
2022-12-01T21:12:05.643Z,37.03
2022-12-01T21:14:37.834Z,33.93
2022-12-01T21:17:18.539Z,37.17
2022-12-01T21:19:50.402Z,37.07
2022-12-01T21:22:17.307Z,38.60
2022-12-01T21:24:49.775Z,36.50
2022-12-01T21:27:17.821Z,42.53
2022-12-01T21:29:46.262Z,39.07
2022-12-01T21:32:15.268Z,35.63
2022-12-01T21:34:43.030Z,39.07
2022-12-01T21:37:19.303Z,37.17
2022-12-01T21:39:51.670Z,38.97
2022-12-01T21:42:20.876Z,41.80
2022-12-01T21:44:48.654Z,39.80
2022-12-01T21:47:18.846Z,40.80
2022-12-01T21:49:45.781Z,40.63
2022-12-01T21:52:17.435Z,41.40
2022-12-01T21:54:44.360Z,40.93
2022-12-01T21:57:29.236Z,45.03
2022-12-01T22:00:05.821Z,40.13
2022-12-01T22:02:45.904Z,38.83
2022-12-01T22:05:26.745Z,37.53
2022-12-01T22:08:00.593Z,34.50
2022-12-01T22:10:51.136Z,41.90
2022-12-01T22:13:21.766Z,37.03
2022-12-01T22:15:48.683Z,35.77
2022-12-01T22:18:20.196Z,39.63
2022-12-01T22:20:47.132Z,43.50
2022-12-01T22:23:14.435Z,37.97
2022-12-01T22:25:42.351Z,39.43
2022-12-01T22:28:14.514Z,39.53
2022-12-01T22:30:44.394Z,44.17
2022-12-01T22:33:19.010Z,40.37
2022-12-01T22:35:48.278Z,37.80
2022-12-01T22:38:30.764Z,41.97
2022-12-01T22:41:01.301Z,36.33
2022-12-01T22:43:40.975Z,41.10
2022-12-01T22:46:32.161Z,45.43
2022-12-01T22:49:01.474Z,42.73
2022-12-01T22:51:31.474Z,44.03
2022-12-01T22:54:01.635Z,42.73
2022-12-01T22:56:33.531Z,40.93
2022-12-01T22:59:00.524Z,41.60
2022-12-01T23:01:31.044Z,35.97
2022-12-01T23:04:20.990Z,41.93
2022-12-01T23:07:03.750Z,41.37
2022-12-01T23:09:38.471Z,40.17
2022-12-01T23:12:29.377Z,36.57
2022-12-01T23:14:58.989Z,38.50
2022-12-01T23:17:29.443Z,39.90
2022-12-01T23:20:11.775Z,35.57
2022-12-01T23:22:38.665Z,39.37
2022-12-01T23:25:12.918Z,38.13
2022-12-01T23:27:40.092Z,41.20
2022-12-01T23:30:08.099Z,39.93
2022-12-01T23:32:36.695Z,36.37
2022-12-01T23:35:04.450Z,36.77
2022-12-01T23:37:34.364Z,38.03
2022-12-01T23:40:02.403Z,38.70
2022-12-01T23:42:29.395Z,35.07
2022-12-01T23:44:56.290Z,38.03
2022-12-01T23:47:28.969Z,40.93
2022-12-01T23:50:01.410Z,37.93
2022-12-01T23:52:35.042Z,40.77
2022-12-01T23:55:07.674Z,41.53
2022-12-01T23:57:37.625Z,36.47
